Time;durP1;ratioP1;P1;durP2;ratioP2;P2;SDS_P1;SDS_P2;PMS_P1;PMS_P2;Temp;Humidity;BMP_temperature;BMP_pressure;BME280_temperature;BME280_humidity;BME280_pressure;Samples;Min_cycle;Max_cycle;Signal;HPM_P1;HPM_P2
2021/10/20 00:00:23;;;;;;;30.08;15.88;;;;;;;;;;5049171;28;20033;-64
2021/10/20 00:02:49;;;;;;;26.98;12.27;;;;;;;;;;5051952;28;20072;-65
2021/10/20 00:05:15;;;;;;;24.13;13.32;;;;;;;;;;5052319;28;20078;-65
2021/10/20 00:07:41;;;;;;;21.35;11.88;;;;;;;;;;5048731;28;20033;-64
2021/10/20 00:10:08;;;;;;;23.20;11.57;;;;;;;;;;5049573;28;20388;-65
2021/10/20 00:12:35;;;;;;;20.25;10.98;;;;;;;;;;5050118;28;20068;-65
2021/10/20 00:15:01;;;;;;;21.65;11.20;;;;;;;;;;5050105;28;20052;-65
2021/10/20 00:17:27;;;;;;;20.08;10.73;;;;;;;;;;5053324;28;20481;-65
2021/10/20 00:19:58;;;;;;;20.02;10.40;;;;;;;;;;5049753;28;20114;-65
2021/10/20 00:22:24;;;;;;;21.40;11.98;;;;;;;;;;5051213;28;20623;-65
2021/10/20 00:24:50;;;;;;;18.40;10.43;;;;;;;;;;5049452;28;20269;-65
2021/10/20 00:27:16;;;;;;;19.60;9.80;;;;;;;;;;5049743;28;20026;-65
2021/10/20 00:29:42;;;;;;;21.92;10.77;;;;;;;;;;5051633;28;20025;-65
2021/10/20 00:32:08;;;;;;;16.25;10.82;;;;;;;;;;5050490;28;20049;-65
2021/10/20 00:34:34;;;;;;;21.58;11.48;;;;;;;;;;5049813;28;20048;-65
2021/10/20 00:37:00;;;;;;;25.85;13.32;;;;;;;;;;5049446;28;20086;-66
2021/10/20 00:39:26;;;;;;;19.20;11.77;;;;;;;;;;5049578;28;20025;-70
2021/10/20 00:41:53;;;;;;;22.17;12.20;;;;;;;;;;5050557;28;20037;-70
2021/10/20 00:44:19;;;;;;;25.95;12.85;;;;;;;;;;5052091;28;20450;-71
2021/10/20 00:46:45;;;;;;;22.60;12.13;;;;;;;;;;5050524;28;20029;-70
2021/10/20 00:49:11;;;;;;;18.48;10.27;;;;;;;;;;5048145;28;20041;-71
2021/10/20 00:51:37;;;;;;;17.58;10.20;;;;;;;;;;5050779;28;20021;-71
2021/10/20 00:54:03;;;;;;;20.27;10.07;;;;;;;;;;5049236;28;20025;-70
2021/10/20 00:56:29;;;;;;;18.85;9.88;;;;;;;;;;5052248;28;20028;-71
2021/10/20 00:58:55;;;;;;;15.52;9.18;;;;;;;;;;5048278;28;20150;-71
2021/10/20 01:01:21;;;;;;;16.08;9.35;;;;;;;;;;5048146;28;20111;-71
2021/10/20 01:03:47;;;;;;;14.98;9.13;;;;;;;;;;5049318;28;20047;-70
2021/10/20 01:06:14;;;;;;;21.38;10.55;;;;;;;;;;5049286;28;20033;-71
2021/10/20 01:08:40;;;;;;;16.58;9.40;;;;;;;;;;5050615;28;20035;-71
2021/10/20 01:11:06;;;;;;;14.93;8.65;;;;;;;;;;5051676;28;20029;-71
2021/10/20 01:13:32;;;;;;;16.25;8.93;;;;;;;;;;5049033;28;20388;-71
2021/10/20 01:15:59;;;;;;;16.50;9.85;;;;;;;;;;5048589;28;20056;-71
2021/10/20 01:18:25;;;;;;;14.50;8.77;;;;;;;;;;5048106;28;20029;-71
2021/10/20 01:20:51;;;;;;;18.52;9.82;;;;;;;;;;5050632;28;20034;-71
2021/10/20 01:23:21;;;;;;;20.65;9.50;;;;;;;;;;5050693;28;20029;-71
2021/10/20 01:25:48;;;;;;;16.75;8.05;;;;;;;;;;5048412;28;20037;-71
2021/10/20 01:28:15;;;;;;;17.05;9.45;;;;;;;;;;5048260;28;20044;-71
2021/10/20 01:30:42;;;;;;;19.33;8.73;;;;;;;;;;5047488;28;20029;-70
2021/10/20 01:33:09;;;;;;;14.50;7.82;;;;;;;;;;5048002;28;20401;-70
2021/10/20 01:35:35;;;;;;;15.48;8.43;;;;;;;;;;5051351;28;20496;-70
2021/10/20 01:38:01;;;;;;;13.63;7.85;;;;;;;;;;5048850;28;20471;-70
2021/10/20 01:40:27;;;;;;;15.27;8.02;;;;;;;;;;5048584;28;20729;-70
2021/10/20 01:42:53;;;;;;;13.82;7.97;;;;;;;;;;5047672;28;20100;-70
2021/10/20 01:45:20;;;;;;;13.77;8.13;;;;;;;;;;5048031;28;20087;-70
2021/10/20 01:47:46;;;;;;;15.57;8.90;;;;;;;;;;5050174;28;20025;-70
2021/10/20 01:50:14;;;;;;;17.42;8.30;;;;;;;;;;5049832;28;20108;-71
2021/10/20 01:52:40;;;;;;;17.27;8.75;;;;;;;;;;5049469;28;20061;-70
2021/10/20 01:55:07;;;;;;;19.75;8.65;;;;;;;;;;5047728;28;20415;-70
2021/10/20 01:57:33;;;;;;;16.23;9.70;;;;;;;;;;5047962;28;20021;-70
2021/10/20 01:59:59;;;;;;;21.20;9.18;;;;;;;;;;5032412;28;20473;-70
2021/10/20 02:02:25;;;;;;;18.80;9.80;;;;;;;;;;5051191;28;20036;-70
2021/10/20 02:04:51;;;;;;;18.88;9.40;;;;;;;;;;5047643;28;20041;-70
2021/10/20 02:07:17;;;;;;;17.92;10.20;;;;;;;;;;5048170;28;20082;-70
2021/10/20 02:09:43;;;;;;;18.02;10.13;;;;;;;;;;5047586;28;20390;-70
2021/10/20 02:12:10;;;;;;;16.98;10.18;;;;;;;;;;5047589;28;20104;-70
2021/10/20 02:14:36;;;;;;;15.18;8.75;;;;;;;;;;5050191;28;20072;-70
2021/10/20 02:17:03;;;;;;;16.88;9.57;;;;;;;;;;5048904;28;20065;-71
2021/10/20 02:19:29;;;;;;;17.35;8.55;;;;;;;;;;5047245;28;20029;-71
2021/10/20 02:21:56;;;;;;;15.63;9.43;;;;;;;;;;5049107;28;20020;-71
2021/10/20 02:24:22;;;;;;;16.45;9.30;;;;;;;;;;5046547;28;20029;-71
2021/10/20 02:26:48;;;;;;;14.18;8.63;;;;;;;;;;5048919;28;20039;-71
2021/10/20 02:29:14;;;;;;;15.65;8.70;;;;;;;;;;5049308;28;20017;-70
2021/10/20 02:31:45;;;;;;;20.38;9.60;;;;;;;;;;5047447;28;20105;-70
2021/10/20 02:34:12;;;;;;;17.73;8.82;;;;;;;;;;5047393;28;20043;-70
2021/10/20 02:36:38;;;;;;;17.00;8.25;;;;;;;;;;5036834;28;20504;-70
2021/10/20 02:39:04;;;;;;;14.20;7.38;;;;;;;;;;5047164;28;20029;-70
2021/10/20 02:41:30;;;;;;;13.65;6.55;;;;;;;;;;5050797;28;20025;-70
2021/10/20 02:43:55;;;;;;;15.18;7.88;;;;;;;;;;5047813;28;20039;-71
2021/10/20 02:46:21;;;;;;;16.80;8.10;;;;;;;;;;5047506;28;20032;-71
2021/10/20 02:48:47;;;;;;;14.93;7.57;;;;;;;;;;5047312;28;20376;-70
2021/10/20 02:51:13;;;;;;;15.77;7.63;;;;;;;;;;5048682;28;20032;-70
2021/10/20 02:53:39;;;;;;;15.40;8.13;;;;;;;;;;5049566;28;20025;-70
2021/10/20 02:56:05;;;;;;;13.18;7.10;;;;;;;;;;5048297;28;20037;-70
2021/10/20 02:58:31;;;;;;;14.20;7.22;;;;;;;;;;5047060;28;20040;-70
2021/10/20 03:00:57;;;;;;;13.90;7.65;;;;;;;;;;5047124;28;20079;-70
2021/10/20 03:03:23;;;;;;;16.63;8.55;;;;;;;;;;5047310;28;20025;-70
2021/10/20 03:05:49;;;;;;;14.43;7.22;;;;;;;;;;5048842;28;20376;-70
2021/10/20 03:08:15;;;;;;;12.38;6.85;;;;;;;;;;5049290;28;20029;-70
2021/10/20 03:10:41;;;;;;;12.45;6.70;;;;;;;;;;5046496;28;20043;-70
2021/10/20 03:13:08;;;;;;;13.52;8.00;;;;;;;;;;5046900;28;20025;-70
2021/10/20 03:15:34;;;;;;;13.82;7.72;;;;;;;;;;5047245;28;20052;-70
2021/10/20 03:18:00;;;;;;;13.18;6.90;;;;;;;;;;5047754;28;20025;-70
2021/10/20 03:20:26;;;;;;;15.57;7.38;;;;;;;;;;5050424;28;20032;-70
2021/10/20 03:22:52;;;;;;;12.82;6.88;;;;;;;;;;5048616;28;20020;-70
2021/10/20 03:25:18;;;;;;;13.38;7.32;;;;;;;;;;5050369;28;20037;-71
2021/10/20 03:27:45;;;;;;;18.13;7.72;;;;;;;;;;5050920;28;20013;-70
2021/10/20 03:30:12;;;;;;;10.52;6.53;;;;;;;;;;5050979;28;20040;-69
2021/10/20 03:32:38;;;;;;;10.95;6.32;;;;;;;;;;5053058;28;20053;-69
2021/10/20 03:35:04;;;;;;;11.88;6.47;;;;;;;;;;5053246;28;20472;-69
2021/10/20 03:37:30;;;;;;;11.30;6.55;;;;;;;;;;5049689;28;20034;-69
2021/10/20 03:39:56;;;;;;;14.57;6.32;;;;;;;;;;5050525;28;20036;-69
2021/10/20 03:42:22;;;;;;;9.88;6.43;;;;;;;;;;5051907;28;20040;-70
2021/10/20 03:44:50;;;;;;;13.73;6.65;;;;;;;;;;5051712;28;20025;-69
2021/10/20 03:47:16;;;;;;;12.48;6.57;;;;;;;;;;5052515;28;20023;-69
2021/10/20 03:49:42;;;;;;;15.93;7.60;;;;;;;;;;5051716;28;20029;-69
2021/10/20 03:52:09;;;;;;;11.30;6.18;;;;;;;;;;5049954;28;20079;-69
2021/10/20 03:54:35;;;;;;;13.23;6.85;;;;;;;;;;5049345;28;20037;-69
2021/10/20 03:57:00;;;;;;;10.48;6.05;;;;;;;;;;5050416;28;20040;-69
2021/10/20 03:59:26;;;;;;;14.18;6.05;;;;;;;;;;5053664;28;20500;-69
2021/10/20 04:01:52;;;;;;;12.38;6.22;;;;;;;;;;5049771;28;20029;-69
2021/10/20 04:04:19;;;;;;;12.98;6.10;;;;;;;;;;5050030;28;20033;-69
2021/10/20 04:06:45;;;;;;;15.70;6.65;;;;;;;;;;5049663;28;20013;-69
2021/10/20 04:09:12;;;;;;;12.35;6.20;;;;;;;;;;5049810;28;20048;-69
2021/10/20 04:11:38;;;;;;;10.68;6.43;;;;;;;;;;5050724;28;20381;-69
2021/10/20 04:14:04;;;;;;;14.85;6.70;;;;;;;;;;5052631;28;20025;-69
2021/10/20 04:16:30;;;;;;;12.65;6.22;;;;;;;;;;5049791;28;20095;-69
2021/10/20 04:18:55;;;;;;;13.02;6.50;;;;;;;;;;5049956;28;20532;-69
2021/10/20 04:21:21;;;;;;;14.70;6.88;;;;;;;;;;5050427;28;20179;-69
2021/10/20 04:23:47;;;;;;;17.90;7.15;;;;;;;;;;5051961;28;20490;-69
2021/10/20 04:26:13;;;;;;;13.80;6.53;;;;;;;;;;5051096;28;20025;-69
2021/10/20 04:28:39;;;;;;;12.05;6.38;;;;;;;;;;5051808;28;20044;-69
2021/10/20 04:31:05;;;;;;;12.80;6.93;;;;;;;;;;5049464;28;20112;-68
2021/10/20 04:33:31;;;;;;;13.90;6.43;;;;;;;;;;5049193;28;20053;-68
2021/10/20 04:35:57;;;;;;;13.68;6.68;;;;;;;;;;5049590;28;20506;-68
2021/10/20 04:38:23;;;;;;;11.90;6.00;;;;;;;;;;5051799;28;20040;-70
2021/10/20 04:40:49;;;;;;;12.65;6.10;;;;;;;;;;5050616;28;20530;-70
2021/10/20 04:43:15;;;;;;;10.73;5.93;;;;;;;;;;5050438;28;20063;-69
2021/10/20 04:45:41;;;;;;;11.20;5.95;;;;;;;;;;5050876;28;20021;-70
2021/10/20 04:48:07;;;;;;;13.13;6.13;;;;;;;;;;5050814;28;20031;-69
2021/10/20 04:50:33;;;;;;;15.00;6.45;;;;;;;;;;5051775;28;20029;-69
2021/10/20 04:52:59;;;;;;;13.90;7.28;;;;;;;;;;5050337;28;20025;-69
2021/10/20 04:55:25;;;;;;;15.50;7.38;;;;;;;;;;5050879;28;20389;-65
2021/10/20 04:57:52;;;;;;;17.80;7.07;;;;;;;;;;5050636;28;20028;-66
2021/10/20 05:00:19;;;;;;;10.88;5.78;;;;;;;;;;5050606;28;20543;-66
2021/10/20 05:02:45;;;;;;;11.43;6.30;;;;;;;;;;5050536;28;20017;-66
2021/10/20 05:05:12;;;;;;;12.95;6.45;;;;;;;;;;5050397;28;20025;-66
2021/10/20 05:07:48;;;;;;;14.30;7.50;;;;;;;;;;5047282;28;20494;-66
2021/10/20 05:10:14;;;;;;;12.80;6.55;;;;;;;;;;5050779;28;20033;-66
2021/10/20 05:12:40;;;;;;;14.00;7.07;;;;;;;;;;5049674;28;20477;-66
2021/10/20 05:15:06;;;;;;;12.25;6.75;;;;;;;;;;5048552;28;20054;-66
2021/10/20 05:17:32;;;;;;;11.20;6.28;;;;;;;;;;5051858;28;20013;-66
2021/10/20 05:19:58;;;;;;;14.50;6.13;;;;;;;;;;5048490;28;20159;-66
2021/10/20 05:22:24;;;;;;;11.55;5.85;;;;;;;;;;5049174;28;20036;-66
2021/10/20 05:24:50;;;;;;;12.23;6.63;;;;;;;;;;5048318;28;20052;-66
2021/10/20 05:27:15;;;;;;;11.15;6.28;;;;;;;;;;5048843;28;20531;-66
2021/10/20 05:29:41;;;;;;;13.75;6.57;;;;;;;;;;5050693;28;20119;-66
2021/10/20 05:32:07;;;;;;;10.35;5.50;;;;;;;;;;5049393;28;20060;-66
2021/10/20 05:34:33;;;;;;;13.48;7.07;;;;;;;;;;5047066;28;20041;-66
2021/10/20 05:36:59;;;;;;;15.80;7.05;;;;;;;;;;5048088;28;20025;-66
2021/10/20 05:39:25;;;;;;;12.32;6.10;;;;;;;;;;5048229;28;20037;-66
2021/10/20 05:41:51;;;;;;;13.93;7.15;;;;;;;;;;5049157;28;20520;-66
2021/10/20 05:44:20;;;;;;;14.00;7.28;;;;;;;;;;5050734;28;20029;-66
2021/10/20 05:46:48;;;;;;;12.52;6.20;;;;;;;;;;5047027;28;20060;-66
2021/10/20 05:49:14;;;;;;;10.68;5.18;;;;;;;;;;5047890;28;20083;-65
2021/10/20 05:51:40;;;;;;;11.45;6.18;;;;;;;;;;5048388;28;20024;-69
2021/10/20 05:54:06;;;;;;;12.52;5.72;;;;;;;;;;5048062;28;20033;-68
2021/10/20 05:56:32;;;;;;;10.45;5.95;;;;;;;;;;5050811;28;20028;-67
2021/10/20 05:58:58;;;;;;;10.55;6.13;;;;;;;;;;5049673;28;20420;-68
2021/10/20 06:01:24;;;;;;;13.57;6.55;;;;;;;;;;5049730;28;20028;-68
2021/10/20 06:03:50;;;;;;;10.13;5.53;;;;;;;;;;5049151;28;20059;-68
2021/10/20 06:06:16;;;;;;;9.13;4.72;;;;;;;;;;5049928;28;20033;-67
2021/10/20 06:08:42;;;;;;;11.63;5.55;;;;;;;;;;5048744;28;20033;-67
2021/10/20 06:11:08;;;;;;;10.00;5.53;;;;;;;;;;5050345;28;20013;-67
2021/10/20 06:13:34;;;;;;;7.70;4.65;;;;;;;;;;5049630;28;20483;-67
2021/10/20 06:16:00;;;;;;;9.25;4.80;;;;;;;;;;5049183;28;20462;-67
2021/10/20 06:18:28;;;;;;;8.55;4.35;;;;;;;;;;5049060;28;20021;-67
2021/10/20 06:20:55;;;;;;;9.43;4.30;;;;;;;;;;5049238;28;20163;-66
2021/10/20 06:23:21;;;;;;;13.52;5.40;;;;;;;;;;5050967;28;20032;-67
2021/10/20 06:25:47;;;;;;;9.63;4.35;;;;;;;;;;5047709;28;20040;-67
2021/10/20 06:28:13;;;;;;;10.45;4.78;;;;;;;;;;5047062;28;20111;-67
2021/10/20 06:30:39;;;;;;;9.68;4.97;;;;;;;;;;5047210;28;20501;-67
2021/10/20 06:33:05;;;;;;;9.35;4.63;;;;;;;;;;5051812;28;20048;-67
2021/10/20 06:35:31;;;;;;;8.30;4.22;;;;;;;;;;5050619;28;20051;-67
2021/10/20 06:37:57;;;;;;;9.75;4.70;;;;;;;;;;5047730;28;20017;-67
2021/10/20 06:40:23;;;;;;;9.07;4.90;;;;;;;;;;5048933;28;20024;-67
2021/10/20 06:42:49;;;;;;;12.57;5.25;;;;;;;;;;5048747;28;20024;-67
2021/10/20 06:45:15;;;;;;;9.32;4.95;;;;;;;;;;5049241;28;20029;-67
2021/10/20 06:47:41;;;;;;;13.13;7.70;;;;;;;;;;5048426;28;20082;-67
2021/10/20 06:50:08;;;;;;;12.30;6.63;;;;;;;;;;5050389;28;20452;-67
2021/10/20 06:52:34;;;;;;;11.65;7.07;;;;;;;;;;5049154;28;20021;-67
2021/10/20 06:55:00;;;;;;;15.80;9.13;;;;;;;;;;5048646;28;20549;-67
2021/10/20 06:57:26;;;;;;;13.15;7.00;;;;;;;;;;5050602;28;20021;-67
2021/10/20 06:59:52;;;;;;;11.15;6.45;;;;;;;;;;5051956;28;20044;-67
2021/10/20 07:02:18;;;;;;;10.07;6.53;;;;;;;;;;5054069;28;20017;-68
2021/10/20 07:04:44;;;;;;;11.10;6.28;;;;;;;;;;5049882;28;20147;-67
2021/10/20 07:07:12;;;;;;;10.63;5.93;;;;;;;;;;5050926;28;20021;-67
2021/10/20 07:09:38;;;;;;;13.15;5.38;;;;;;;;;;5050851;28;20403;-67
2021/10/20 07:12:05;;;;;;;10.07;5.68;;;;;;;;;;5050696;28;20106;-67
2021/10/20 07:14:31;;;;;;;10.32;5.75;;;;;;;;;;5052701;28;20098;-67
2021/10/20 07:16:58;;;;;;;13.25;6.05;;;;;;;;;;5049561;28;20540;-67
2021/10/20 07:19:24;;;;;;;10.07;5.35;;;;;;;;;;5049769;28;20021;-67
2021/10/20 07:21:51;;;;;;;10.50;6.00;;;;;;;;;;5051337;28;20035;-67
2021/10/20 07:24:16;;;;;;;11.65;6.20;;;;;;;;;;5048839;28;20025;-67
2021/10/20 07:26:43;;;;;;;11.00;5.40;;;;;;;;;;5051222;28;20032;-67
2021/10/20 07:29:09;;;;;;;11.32;5.13;;;;;;;;;;5050046;28;20033;-65
2021/10/20 07:31:35;;;;;;;9.90;5.20;;;;;;;;;;5049900;28;20031;-67
2021/10/20 07:34:01;;;;;;;9.38;4.85;;;;;;;;;;5048256;28;20048;-67
2021/10/20 07:36:28;;;;;;;8.10;4.53;;;;;;;;;;5049749;28;20057;-67
2021/10/20 07:38:54;;;;;;;10.60;6.20;;;;;;;;;;5051770;28;20017;-67
2021/10/20 07:41:20;;;;;;;8.90;5.00;;;;;;;;;;5053068;28;20025;-66
2021/10/20 07:43:46;;;;;;;7.70;4.82;;;;;;;;;;5050532;28;20040;-67
2021/10/20 07:46:12;;;;;;;8.68;4.70;;;;;;;;;;5049788;28;20485;-67
2021/10/20 07:48:38;;;;;;;9.20;5.25;;;;;;;;;;5050325;28;20101;-67
2021/10/20 07:51:04;;;;;;;10.77;5.47;;;;;;;;;;5051674;28;20052;-67
2021/10/20 07:53:30;;;;;;;10.60;5.60;;;;;;;;;;5054092;28;20036;-67
2021/10/20 07:55:56;;;;;;;8.60;4.97;;;;;;;;;;5049651;28;20040;-67
2021/10/20 07:58:22;;;;;;;9.50;4.68;;;;;;;;;;5049915;28;20078;-67
2021/10/20 08:00:48;;;;;;;8.75;4.63;;;;;;;;;;5050232;28;20021;-67
2021/10/20 08:03:14;;;;;;;9.07;4.60;;;;;;;;;;5048636;28;20101;-67
2021/10/20 08:05:40;;;;;;;9.18;4.55;;;;;;;;;;5051972;28;20094;-67
2021/10/20 08:08:09;;;;;;;8.25;4.35;;;;;;;;;;5051469;28;20468;-67
2021/10/20 08:10:36;;;;;;;11.43;5.43;;;;;;;;;;5049447;28;20462;-66
2021/10/20 08:13:01;;;;;;;12.15;5.05;;;;;;;;;;5049382;28;20044;-67
2021/10/20 08:15:28;;;;;;;8.20;5.20;;;;;;;;;;5049970;28;20045;-67
2021/10/20 08:17:56;;;;;;;9.55;5.38;;;;;;;;;;5049759;28;20057;-66
2021/10/20 08:20:23;;;;;;;8.93;5.53;;;;;;;;;;5052608;28;20025;-67
2021/10/20 08:22:49;;;;;;;9.02;4.85;;;;;;;;;;5050578;28;20523;-67
2021/10/20 08:25:15;;;;;;;9.00;5.28;;;;;;;;;;5049846;28;20044;-67
2021/10/20 08:27:41;;;;;;;7.00;4.45;;;;;;;;;;5049292;28;20108;-67
2021/10/20 08:30:14;;;;;;;9.40;4.43;;;;;;;;;;5049643;28;20022;-67
2021/10/20 08:32:40;;;;;;;8.65;5.40;;;;;;;;;;5051483;28;20130;-67
2021/10/20 08:35:07;;;;;;;11.77;5.75;;;;;;;;;;5050762;28;20435;-66
2021/10/20 08:37:33;;;;;;;8.70;4.20;;;;;;;;;;5049637;28;20025;-67
2021/10/20 08:39:59;;;;;;;11.43;5.03;;;;;;;;;;5049274;28;20086;-67
2021/10/20 08:42:25;;;;;;;9.15;4.82;;;;;;;;;;5049509;28;20021;-65
2021/10/20 08:44:51;;;;;;;6.95;4.15;;;;;;;;;;5050608;28;20429;-65
2021/10/20 08:47:17;;;;;;;5.93;3.35;;;;;;;;;;5051572;28;20508;-64
2021/10/20 08:49:44;;;;;;;6.43;3.55;;;;;;;;;;5049026;28;20464;-65
2021/10/20 08:52:10;;;;;;;7.53;3.83;;;;;;;;;;5050616;28;20025;-65
2021/10/20 08:54:36;;;;;;;11.95;3.53;;;;;;;;;;5049049;28;20025;-64
2021/10/20 08:57:03;;;;;;;5.72;3.40;;;;;;;;;;5048973;28;20037;-64
2021/10/20 08:59:32;;;;;;;5.53;3.13;;;;;;;;;;5052740;28;20524;-65
2021/10/20 09:01:58;;;;;;;6.68;3.75;;;;;;;;;;5050657;28;20057;-66
2021/10/20 09:04:24;;;;;;;6.57;3.63;;;;;;;;;;5049125;28;20029;-65
2021/10/20 09:06:50;;;;;;;4.78;2.85;;;;;;;;;;5048673;28;20048;-65
2021/10/20 09:09:18;;;;;;;7.28;3.33;;;;;;;;;;5048797;28;20473;-65
2021/10/20 09:11:44;;;;;;;5.25;2.80;;;;;;;;;;5050992;28;20039;-66
2021/10/20 09:14:12;;;;;;;4.60;2.63;;;;;;;;;;5049859;28;20120;-65
2021/10/20 09:16:39;;;;;;;6.40;3.00;;;;;;;;;;5049032;28;20115;-65
2021/10/20 09:19:12;;;;;;;5.20;2.85;;;;;;;;;;5048328;28;20166;-64
2021/10/20 09:21:55;;;;;;;5.15;2.55;;;;;;;;;;5048860;28;20476;-64
2021/10/20 09:24:23;;;;;;;5.75;2.83;;;;;;;;;;5048815;28;20033;-64
2021/10/20 09:26:50;;;;;;;4.40;2.37;;;;;;;;;;5050192;28;20047;-64
2021/10/20 09:29:23;;;;;;;4.25;2.40;;;;;;;;;;5050393;28;20033;-64
2021/10/20 09:31:49;;;;;;;5.60;2.60;;;;;;;;;;5047646;28;20066;-64
2021/10/20 09:34:16;;;;;;;5.75;3.05;;;;;;;;;;5048391;28;20025;-64
2021/10/20 09:36:42;;;;;;;5.55;2.63;;;;;;;;;;5048184;28;20203;-64
2021/10/20 09:39:11;;;;;;;4.70;2.60;;;;;;;;;;5048673;28;20025;-64
2021/10/20 09:41:37;;;;;;;5.80;2.75;;;;;;;;;;5050663;28;20029;-64
2021/10/20 09:44:03;;;;;;;5.32;2.83;;;;;;;;;;5049152;28;20021;-65
2021/10/20 09:46:32;;;;;;;7.97;3.10;;;;;;;;;;5047902;28;20100;-65
2021/10/20 09:49:01;;;;;;;6.82;2.88;;;;;;;;;;5048095;28;20495;-65
2021/10/20 09:51:27;;;;;;;4.70;2.65;;;;;;;;;;5048245;28;20059;-65
2021/10/20 09:53:53;;;;;;;6.22;2.90;;;;;;;;;;5049242;28;20037;-62
2021/10/20 09:56:19;;;;;;;4.32;2.45;;;;;;;;;;5050128;28;20477;-62
2021/10/20 09:58:46;;;;;;;5.18;2.90;;;;;;;;;;5047908;28;20063;-65
2021/10/20 10:01:13;;;;;;;6.30;2.80;;;;;;;;;;5047849;28;20036;-65
2021/10/20 10:03:39;;;;;;;6.35;2.60;;;;;;;;;;5047551;28;20052;-65
2021/10/20 10:06:05;;;;;;;5.43;2.80;;;;;;;;;;5047849;28;20025;-64
2021/10/20 10:08:31;;;;;;;5.22;2.58;;;;;;;;;;5050838;28;20396;-65
2021/10/20 10:10:59;;;;;;;5.82;2.50;;;;;;;;;;5048128;28;20033;-65
2021/10/20 10:13:28;;;;;;;5.45;2.70;;;;;;;;;;5047908;28;20495;-65
2021/10/20 10:15:54;;;;;;;6.60;2.70;;;;;;;;;;5047758;28;20037;-67
2021/10/20 10:18:20;;;;;;;6.00;2.70;;;;;;;;;;5047096;28;20028;-64
2021/10/20 10:20:46;;;;;;;4.68;2.53;;;;;;;;;;5050077;28;20032;-63
2021/10/20 10:23:26;;;;;;;4.78;2.63;;;;;;;;;;5048834;28;20372;-64
2021/10/20 10:26:02;;;;;;;4.35;2.50;;;;;;;;;;5047039;28;20033;-63
2021/10/20 10:28:29;;;;;;;3.83;2.42;;;;;;;;;;5047082;28;20021;-64
2021/10/20 10:30:58;;;;;;;5.28;2.80;;;;;;;;;;5048897;28;20029;-64
2021/10/20 10:33:26;;;;;;;5.50;3.08;;;;;;;;;;5046762;28;20041;-64
2021/10/20 10:36:11;;;;;;;5.47;2.95;;;;;;;;;;5049084;28;20053;-64
2021/10/20 10:38:41;;;;;;;6.13;3.00;;;;;;;;;;5046683;28;20104;-64
2021/10/20 10:41:19;;;;;;;5.93;3.05;;;;;;;;;;5049468;28;20028;-64
2021/10/20 10:43:45;;;;;;;;;;;;;;;;;;5046409;28;20067;-62
2021/10/20 10:46:13;;;;;;;7.25;3.13;;;;;;;;;;5040827;28;19956;-64
2021/10/20 10:48:40;;;;;;;6.32;3.20;;;;;;;;;;5044636;28;20393;-64
2021/10/20 10:51:13;;;;;;;7.70;3.50;;;;;;;;;;5047151;28;20029;-64
2021/10/20 10:53:39;;;;;;;9.48;3.30;;;;;;;;;;5047271;28;20048;-62
2021/10/20 10:56:07;;;;;;;5.88;2.83;;;;;;;;;;5046311;28;20506;-64
2021/10/20 10:58:52;;;;;;;6.82;3.55;;;;;;;;;;5045551;28;20040;-63
2021/10/20 11:01:36;;;;;;;5.45;3.10;;;;;;;;;;5047950;28;20453;-63
2021/10/20 11:04:17;;;;;;;6.38;3.47;;;;;;;;;;5029379;28;20036;-62
2021/10/20 11:06:43;;;;;;;8.25;3.50;;;;;;;;;;5044913;28;20025;-62
2021/10/20 11:09:09;;;;;;;7.70;3.90;;;;;;;;;;5047346;28;20029;-63
2021/10/20 11:11:36;;;;;;;8.52;3.78;;;;;;;;;;5052520;28;20031;-63
2021/10/20 11:14:03;;;;;;;6.15;3.70;;;;;;;;;;5046246;28;20025;-63
2021/10/20 11:16:29;;;;;;;8.52;3.45;;;;;;;;;;5039162;28;20040;-63
2021/10/20 11:18:55;;;;;;;6.50;3.40;;;;;;;;;;5044066;28;20100;-62
2021/10/20 11:21:23;;;;;;;9.13;3.90;;;;;;;;;;5048290;28;20040;-62
2021/10/20 11:23:49;;;;;;;6.75;3.72;;;;;;;;;;5047982;28;20022;-64
2021/10/20 11:26:15;;;;;;;7.60;4.00;;;;;;;;;;5047783;28;20025;-64
2021/10/20 11:28:41;;;;;;;9.95;4.10;;;;;;;;;;5045854;28;20112;-63
2021/10/20 11:31:10;;;;;;;7.10;4.10;;;;;;;;;;5048437;28;20032;-63
2021/10/20 11:33:37;;;;;;;6.20;3.80;;;;;;;;;;5046722;28;20511;-65
2021/10/20 11:36:03;;;;;;;9.52;4.10;;;;;;;;;;5047035;28;20082;-64
2021/10/20 11:38:42;;;;;;;8.32;4.45;;;;;;;;;;5049722;28;20395;-65
2021/10/20 11:41:08;;;;;;;8.15;4.68;;;;;;;;;;5054112;28;20081;-64
2021/10/20 11:43:45;;;;;;;7.50;3.63;;;;;;;;;;5046458;28;20033;-64
2021/10/20 11:46:11;;;;;;;7.40;3.60;;;;;;;;;;5050664;28;20362;-64
2021/10/20 11:48:41;;;;;;;8.30;4.28;;;;;;;;;;5051114;28;20055;-65
2021/10/20 11:51:07;;;;;;;10.20;5.28;;;;;;;;;;5051304;28;20046;-65
2021/10/20 11:53:33;;;;;;;11.35;6.22;;;;;;;;;;5053630;28;20055;-65
2021/10/20 11:56:00;;;;;;;11.40;6.40;;;;;;;;;;5050141;28;20033;-63
2021/10/20 11:58:28;;;;;;;12.38;7.05;;;;;;;;;;5047538;28;20031;-65
2021/10/20 12:00:56;;;;;;;13.20;7.47;;;;;;;;;;5052440;28;20028;-65
2021/10/20 12:03:31;;;;;;;12.98;7.53;;;;;;;;;;5052072;28;20404;-64
2021/10/20 12:05:57;;;;;;;10.80;7.30;;;;;;;;;;5051442;28;20025;-64
2021/10/20 12:08:23;;;;;;;15.45;8.05;;;;;;;;;;5050546;28;20029;-64
2021/10/20 12:10:49;;;;;;;13.90;7.70;;;;;;;;;;5050232;28;20036;-64
2021/10/20 12:13:16;;;;;;;14.43;7.78;;;;;;;;;;5049422;28;20035;-63
2021/10/20 12:15:42;;;;;;;11.20;6.70;;;;;;;;;;5050661;28;20119;-63
2021/10/20 12:18:09;;;;;;;13.32;7.75;;;;;;;;;;5051389;28;20021;-64
2021/10/20 12:20:35;;;;;;;14.35;8.85;;;;;;;;;;5052118;28;20021;-65
2021/10/20 12:23:01;;;;;;;10.95;6.57;;;;;;;;;;5051139;28;20032;-64
2021/10/20 12:25:27;;;;;;;16.27;6.95;;;;;;;;;;5050701;28;20032;-64
2021/10/20 12:27:53;;;;;;;11.60;6.50;;;;;;;;;;5051347;28;20020;-64
2021/10/20 12:30:19;;;;;;;12.25;6.20;;;;;;;;;;5050974;28;20384;-64
2021/10/20 12:32:45;;;;;;;11.32;7.43;;;;;;;;;;5049897;28;20047;-64
2021/10/20 12:35:16;;;;;;;14.77;8.27;;;;;;;;;;5052277;28;20025;-64
2021/10/20 12:37:43;;;;;;;15.20;8.65;;;;;;;;;;5050820;28;20392;-65
2021/10/20 12:40:11;;;;;;;18.73;10.10;;;;;;;;;;5050897;28;20481;-64
2021/10/20 12:42:37;;;;;;;;;;;;;;;;;;5051143;28;20015;-62
2021/10/20 12:45:07;;;;;;;19.70;11.63;;;;;;;;;;5050114;28;19913;-64
2021/10/20 12:47:33;;;;;;;19.67;10.55;;;;;;;;;;5048406;28;20025;-63
2021/10/20 12:50:04;;;;;;;18.05;10.80;;;;;;;;;;5050995;28;20372;-63
2021/10/20 12:52:30;;;;;;;21.15;11.82;;;;;;;;;;5051070;28;20469;-63
2021/10/20 12:54:56;;;;;;;18.80;10.98;;;;;;;;;;5048590;28;20120;-63
2021/10/20 12:57:23;;;;;;;13.80;9.07;;;;;;;;;;5049017;28;20026;-63
2021/10/20 12:59:49;;;;;;;19.75;11.48;;;;;;;;;;5050692;28;20478;-63
2021/10/20 13:02:15;;;;;;;15.00;9.60;;;;;;;;;;5052592;28;20100;-63
2021/10/20 13:04:41;;;;;;;13.98;8.93;;;;;;;;;;5048606;28;20621;-63
2021/10/20 13:07:07;;;;;;;14.27;8.77;;;;;;;;;;5048339;28;20029;-63
2021/10/20 13:09:33;;;;;;;14.93;9.77;;;;;;;;;;5049492;28;20029;-63
2021/10/20 13:11:59;;;;;;;12.38;8.00;;;;;;;;;;5049214;28;23007;-63
2021/10/20 13:14:25;;;;;;;12.25;8.38;;;;;;;;;;5052067;28;20032;-65
2021/10/20 13:16:51;;;;;;;18.73;10.10;;;;;;;;;;5048605;28;20476;-63
2021/10/20 13:19:17;;;;;;;15.15;9.05;;;;;;;;;;5047944;28;20025;-63
2021/10/20 13:21:43;;;;;;;13.93;8.98;;;;;;;;;;5049540;28;20013;-63
2021/10/20 13:24:09;;;;;;;15.80;9.18;;;;;;;;;;5049006;28;20366;-63
2021/10/20 13:26:36;;;;;;;18.90;9.60;;;;;;;;;;5051652;28;20021;-63
2021/10/20 13:29:02;;;;;;;12.52;8.65;;;;;;;;;;5049269;28;20041;-63
2021/10/20 13:31:28;;;;;;;13.05;8.55;;;;;;;;;;5048162;28;20138;-63
2021/10/20 13:33:54;;;;;;;13.15;8.25;;;;;;;;;;5047571;28;20059;-63
2021/10/20 13:36:20;;;;;;;11.07;7.25;;;;;;;;;;5054194;28;20109;-63
2021/10/20 13:38:47;;;;;;;11.80;7.45;;;;;;;;;;5050403;28;20025;-63
2021/10/20 13:41:13;;;;;;;13.02;7.75;;;;;;;;;;5049123;28;20037;-63
2021/10/20 13:43:39;;;;;;;13.20;7.68;;;;;;;;;;5048584;28;20100;-63
2021/10/20 13:46:06;;;;;;;12.38;7.35;;;;;;;;;;5047909;28;20025;-63
2021/10/20 13:48:32;;;;;;;12.90;7.22;;;;;;;;;;5048356;28;20025;-63
2021/10/20 13:50:58;;;;;;;13.38;7.90;;;;;;;;;;5047740;28;20032;-63
2021/10/20 13:53:24;;;;;;;12.60;7.25;;;;;;;;;;5051903;28;20032;-63
2021/10/20 13:55:50;;;;;;;10.48;7.15;;;;;;;;;;5048155;28;20039;-63
2021/10/20 13:58:16;;;;;;;11.68;8.38;;;;;;;;;;5047637;28;20224;-63
2021/10/20 14:00:42;;;;;;;12.50;8.52;;;;;;;;;;5047637;28;20017;-63
2021/10/20 14:03:08;;;;;;;11.35;6.90;;;;;;;;;;5049425;28;20461;-63
2021/10/20 14:05:37;;;;;;;13.32;6.70;;;;;;;;;;5051073;28;20057;-63
2021/10/20 14:08:03;;;;;;;9.75;7.10;;;;;;;;;;5048409;28;20052;-63
2021/10/20 14:10:29;;;;;;;11.35;6.70;;;;;;;;;;5047757;28;20029;-63
2021/10/20 14:12:55;;;;;;;10.88;7.15;;;;;;;;;;5047229;28;20468;-63
2021/10/20 14:15:21;;;;;;;11.90;7.10;;;;;;;;;;5047329;28;20181;-63
2021/10/20 14:17:47;;;;;;;18.30;9.95;;;;;;;;;;5048848;28;20132;-63
2021/10/20 14:20:13;;;;;;;11.15;7.10;;;;;;;;;;5049321;28;20029;-63
2021/10/20 14:22:39;;;;;;;10.40;7.35;;;;;;;;;;5048613;28;20071;-62
2021/10/20 14:25:09;;;;;;;12.30;7.70;;;;;;;;;;5049182;28;20447;-63
2021/10/20 14:27:35;;;;;;;11.45;7.82;;;;;;;;;;5047556;28;20031;-63
2021/10/20 14:30:01;;;;;;;9.45;6.78;;;;;;;;;;5032031;28;20037;-63